Time;durP1;ratioP1;P1;durP2;ratioP2;P2;SDS_P1;SDS_P2;PMS_P1;PMS_P2;Temp;Humidity;BMP_temperature;BMP_pressure;BME280_temperature;BME280_humidity;BME280_pressure;Samples;Min_cycle;Max_cycle;Signal;HPM_P1;HPM_P2
2024/03/25 00:04:22;;;;;;;0.00;0.00;;;;;;;4.31;100.00;93525.66;10390352;28;20021;-81
2024/03/25 00:09:22;;;;;;;0.00;0.00;;;;;;;4.22;100.00;93522.72;10372648;28;20479;-81
2024/03/25 00:14:23;;;;;;;0.00;0.00;;;;;;;4.14;100.00;93523.22;10389897;28;20034;-82
2024/03/25 00:19:23;;;;;;;0.00;0.00;;;;;;;3.77;100.00;93510.91;10371915;28;20857;-82
2024/03/25 00:24:24;;;;;;;0.00;0.00;;;;;;;3.75;100.00;93513.00;10386767;28;20102;-81
2024/03/25 00:29:24;;;;;;;0.00;0.00;;;;;;;3.69;100.00;93520.16;10389816;28;20049;-82
2024/03/25 00:34:34;;;;;;;0.00;0.00;;;;;;;3.48;100.00;93505.22;10370643;28;20272;-81
2024/03/25 00:39:35;;;;;;;0.00;0.00;;;;;;;3.65;100.00;93507.66;10363234;28;20025;-81
2024/03/25 00:44:35;;;;;;;0.00;0.00;;;;;;;3.69;100.00;93498.13;10371679;28;20054;-83
2024/03/25 00:49:36;;;;;;;0.00;0.00;;;;;;;3.89;100.00;93497.38;10380724;28;20021;-82
2024/03/25 00:54:36;;;;;;;0.00;0.00;;;;;;;4.05;100.00;93501.69;10384634;28;20064;-84
2024/03/25 00:59:36;;;;;;;0.00;0.00;;;;;;;4.05;100.00;93491.03;10362623;28;20507;-81
2024/03/25 01:04:37;;;;;;;0.00;0.00;;;;;;;4.11;100.00;93484.66;10360280;28;20087;-82
2024/03/25 01:09:37;;;;;;;0.00;0.00;;;;;;;4.30;100.00;93494.00;10378495;28;20028;-80
2024/03/25 01:14:38;;;;;;;0.00;0.00;;;;;;;4.38;100.00;93478.34;10359130;28;20510;-81
2024/03/25 01:19:38;;;;;;;0.00;0.00;;;;;;;4.20;100.00;93470.84;10374913;28;20538;-79
2024/03/25 01:24:38;;;;;;;0.00;0.00;;;;;;;4.26;100.00;93461.81;10382118;28;20049;-80
2024/03/25 01:29:39;;;;;;;0.00;0.00;;;;;;;4.47;100.00;93462.63;10389525;28;20021;-81
2024/03/25 01:34:39;;;;;;;0.00;0.00;;;;;;;4.51;100.00;93471.69;10389572;28;20612;-82
2024/03/25 01:39:40;;;;;;;0.00;0.00;;;;;;;4.44;100.00;93473.81;10389355;28;20021;-82
2024/03/25 01:44:40;;;;;;;0.00;0.00;;;;;;;4.37;100.00;93470.63;10389667;28;20156;-81
2024/03/25 01:49:41;;;;;;;0.00;0.00;;;;;;;4.47;100.00;93461.84;10387388;28;20022;-81
2024/03/25 01:54:41;;;;;;;0.00;0.00;;;;;;;4.61;100.00;93455.69;10387525;28;20056;-82
2024/03/25 01:59:43;;;;;;;0.00;0.00;;;;;;;4.70;100.00;93461.31;10389147;28;20045;-82
2024/03/25 02:04:44;;;;;;;0.00;0.00;;;;;;;4.69;100.00;93483.66;10386612;28;20809;-82
2024/03/25 02:09:45;;;;;;;0.00;0.00;;;;;;;4.61;100.00;93498.28;10375490;28;20028;-83
2024/03/25 02:14:46;;;;;;;0.00;0.00;;;;;;;4.32;100.00;93497.19;10376654;28;20025;-81
2024/03/25 02:19:49;;;;;;;0.00;0.00;;;;;;;4.09;100.00;93507.28;10388059;28;20531;-82
2024/03/25 02:24:52;;;;;;;0.00;0.00;;;;;;;3.90;100.00;93489.13;10386481;28;20046;-81
2024/03/25 02:29:53;;;;;;;0.00;0.00;;;;;;;3.83;100.00;93488.59;10384947;28;20024;-80
2024/03/25 02:34:53;;;;;;;0.00;0.00;;;;;;;3.64;100.00;93488.25;10395333;28;20033;-81
2024/03/25 02:39:57;;;;;;;0.00;0.00;;;;;;;3.63;100.00;93492.00;10396211;28;20033;-80
2024/03/25 02:44:58;;;;;;;0.00;0.00;;;;;;;3.65;100.00;93500.50;10403633;28;20103;-81
2024/03/25 02:49:58;;;;;;;0.00;0.00;;;;;;;3.65;100.00;93503.16;10399267;28;20061;-80
2024/03/25 02:54:59;;;;;;;0.00;0.00;;;;;;;3.82;100.00;93521.53;10396154;28;20466;-80
2024/03/25 02:59:59;;;;;;;0.00;0.00;;;;;;;3.80;100.00;93513.03;10395508;28;20375;-82
2024/03/25 03:05:00;;;;;;;0.00;0.00;;;;;;;3.70;100.00;93527.09;10376584;28;20018;-81
2024/03/25 03:10:01;;;;;;;0.00;0.00;;;;;;;3.72;100.00;93526.81;10393346;28;20040;-82
2024/03/25 03:15:01;;;;;;;0.00;0.00;;;;;;;3.82;100.00;93529.50;10390014;28;20534;-81
2024/03/25 03:20:02;;;;;;;0.00;0.00;;;;;;;3.81;100.00;93537.75;10374625;28;20022;-81
2024/03/25 03:25:03;;;;;;;0.00;0.00;;;;;;;3.39;100.00;93531.44;10394325;28;20104;-80
2024/03/25 03:30:04;;;;;;;0.00;0.00;;;;;;;3.32;100.00;93537.00;10390320;28;20025;-78
2024/03/25 03:35:05;;;;;;;0.00;0.00;;;;;;;3.56;100.00;93552.53;10388451;28;20444;-79
2024/03/25 03:40:09;;;;;;;0.00;0.00;;;;;;;3.66;100.00;93551.78;10391929;28;20107;-79
2024/03/25 03:45:12;;;;;;;0.00;0.00;;;;;;;3.76;100.00;93546.50;10392140;28;20068;-80
2024/03/25 03:50:12;;;;;;;0.00;0.00;;;;;;;3.91;100.00;93548.44;10368595;28;20029;-77
2024/03/25 03:55:13;;;;;;;0.00;0.00;;;;;;;4.09;100.00;93558.59;10384194;28;20037;-77
2024/03/25 04:00:14;;;;;;;0.00;0.00;;;;;;;4.03;100.00;93550.84;10367408;28;20519;-77
2024/03/25 04:05:14;;;;;;;0.00;0.00;;;;;;;3.91;100.00;93559.06;10385339;28;20091;-78
2024/03/25 04:10:15;;;;;;;0.00;0.00;;;;;;;3.84;100.00;93580.56;10384602;28;20635;-78
2024/03/25 04:15:17;;;;;;;0.00;0.00;;;;;;;3.92;100.00;93582.72;10384325;28;20030;-79
2024/03/25 04:20:18;;;;;;;0.00;0.00;;;;;;;4.03;100.00;93575.59;10380782;28;20037;-78
2024/03/25 04:25:18;;;;;;;0.00;0.00;;;;;;;4.10;100.00;93584.13;10383017;28;20103;-78
2024/03/25 04:30:18;;;;;;;0.00;0.00;;;;;;;4.06;100.00;93592.84;10380394;28;20781;-76
2024/03/25 04:35:19;;;;;;;0.00;0.00;;;;;;;4.06;100.00;93588.34;10371100;28;20460;-77
2024/03/25 04:40:19;;;;;;;0.00;0.00;;;;;;;4.06;100.00;93619.44;10376502;28;20291;-78
2024/03/25 04:45:20;;;;;;;0.00;0.00;;;;;;;4.02;100.00;93634.31;10376027;28;20130;-76
2024/03/25 04:50:20;;;;;;;0.00;0.00;;;;;;;4.03;100.00;93638.56;10358567;28;20037;-77
2024/03/25 04:55:21;;;;;;;0.00;0.00;;;;;;;4.14;100.00;93645.53;10361750;28;20029;-77
2024/03/25 05:00:21;;;;;;;0.00;0.00;;;;;;;4.24;100.00;93658.91;10370093;28;20675;-76
2024/03/25 05:05:21;;;;;;;0.00;0.00;;;;;;;4.30;100.00;93650.91;10376732;28;20470;-76
2024/03/25 05:10:22;;;;;;;0.00;0.00;;;;;;;4.24;100.00;93644.78;10377394;28;20476;-78
2024/03/25 05:15:22;;;;;;;0.00;0.00;;;;;;;4.24;100.00;93656.22;10376776;28;20329;-75
2024/03/25 05:20:22;;;;;;;0.00;0.00;;;;;;;4.26;100.00;93663.94;10375952;28;20666;-75
2024/03/25 05:25:28;;;;;;;0.00;0.00;;;;;;;4.09;100.00;93664.16;10376291;28;20505;-75
2024/03/25 05:30:29;;;;;;;0.00;0.00;;;;;;;4.26;100.00;93669.25;10373079;28;20477;-77
2024/03/25 05:35:30;;;;;;;0.00;0.00;;;;;;;4.36;100.00;93674.63;10343824;28;20029;-76
2024/03/25 05:40:31;;;;;;;0.00;0.00;;;;;;;4.30;100.00;93677.50;10358185;28;20026;-76
2024/03/25 05:45:31;;;;;;;0.00;0.00;;;;;;;4.06;100.00;93673.44;10372159;28;20053;-76
2024/03/25 05:50:31;;;;;;;0.00;0.00;;;;;;;3.77;100.00;93678.31;10372678;28;20495;-76
2024/03/25 05:55:32;;;;;;;0.00;0.00;;;;;;;3.76;100.00;93693.44;10374751;28;20797;-75
2024/03/25 06:00:32;;;;;;;0.00;0.00;;;;;;;3.52;100.00;93692.25;10378769;28;20057;-76
2024/03/25 06:05:32;;;;;;;0.00;0.00;;;;;;;3.72;100.00;93710.97;10382195;28;20105;-77
2024/03/25 06:10:37;;;;;;;0.00;0.00;;;;;;;3.85;100.00;93708.91;10383165;28;20053;-76
2024/03/25 06:15:37;;;;;;;0.00;0.00;;;;;;;3.70;100.00;93725.59;10379343;28;20057;-76
2024/03/25 06:20:38;;;;;;;0.00;0.00;;;;;;;3.78;100.00;93737.59;10381134;28;20626;-76
2024/03/25 06:25:39;;;;;;;0.00;0.00;;;;;;;4.42;100.00;93744.59;10384090;28;20056;-76
2024/03/25 06:35:58;;;;;;;0.00;0.00;;;;;;;6.67;100.00;93737.81;10381551;28;20758;-77
2024/03/25 06:40:58;;;;;;;0.00;0.00;;;;;;;6.35;100.00;93750.72;10384099;28;20427;-76
2024/03/25 06:45:58;;;;;;;0.00;0.00;;;;;;;8.11;100.00;93751.34;10384476;28;20049;-76
2024/03/25 06:50:59;;;;;;;0.00;0.00;;;;;;;8.43;100.00;93756.13;10382230;28;20346;-75
2024/03/25 06:56:00;;;;;;;0.00;0.00;;;;;;;8.92;100.00;93767.66;10382113;28;20108;-76
2024/03/25 07:01:08;;;;;;;0.00;0.00;;;;;;;11.02;100.00;93753.91;10383169;28;20026;-76
2024/03/25 07:06:09;;;;;;;0.00;0.00;;;;;;;11.95;75.68;93744.63;10361367;28;20048;-76
2024/03/25 07:11:09;;;;;;;0.00;0.00;;;;;;;11.83;86.41;93747.81;10367388;28;20032;-77
2024/03/25 07:16:09;;;;;;;0.00;0.00;;;;;;;12.70;68.43;93749.50;10379725;28;20029;-78
2024/03/25 07:21:10;;;;;;;0.00;0.00;;;;;;;11.30;70.85;93746.59;10360833;28;20393;-75
2024/03/25 07:26:10;;;;;;;0.00;0.00;;;;;;;12.53;72.29;93766.38;10379892;28;20300;-75
2024/03/25 07:31:10;;;;;;;0.00;0.00;;;;;;;12.61;63.14;93771.84;10382315;28;20671;-75
2024/03/25 07:36:11;;;;;;;0.00;0.00;;;;;;;10.13;78.03;93786.09;10381490;28;20111;-77
2024/03/25 07:41:12;;;;;;;0.00;0.00;;;;;;;10.76;79.82;93782.06;10382148;28;20674;-76
2024/03/25 07:46:12;;;;;;;0.00;0.00;;;;;;;10.69;74.54;93772.78;10377194;28;20107;-77
2024/03/25 07:51:12;;;;;;;0.00;0.00;;;;;;;10.64;75.82;93768.31;10381612;28;20037;-77
2024/03/25 07:56:17;;;;;;;0.00;0.00;;;;;;;11.56;78.54;93773.75;10374693;28;20786;-76
2024/03/25 08:01:17;;;;;;;0.00;0.00;;;;;;;12.93;62.18;93785.28;10376556;28;20389;-77
2024/03/25 08:06:17;;;;;;;0.00;0.00;;;;;;;11.55;65.08;93784.81;10371993;28;20515;-77
2024/03/25 08:11:18;;;;;;;0.00;0.00;;;;;;;13.05;59.53;93780.09;10373164;28;20268;-77
2024/03/25 08:16:19;;;;;;;0.00;0.00;;;;;;;12.69;67.53;93794.53;10381271;28;20276;-76
2024/03/25 08:21:20;;;;;;;0.00;0.00;;;;;;;13.22;58.26;93789.38;10380302;28;20284;-76
2024/03/25 08:26:20;;;;;;;0.00;0.00;;;;;;;10.85;71.06;93813.63;10380476;28;20037;-77
2024/03/25 08:31:20;;;;;;;0.00;0.00;;;;;;;11.65;78.72;93806.09;10379715;28;20049;-77
2024/03/25 08:36:21;;;;;;;0.00;0.00;;;;;;;11.35;68.44;93802.97;10378414;28;20537;-76
2024/03/25 08:41:21;;;;;;;0.00;0.00;;;;;;;10.32;79.55;93812.91;10379097;28;20053;-77
2024/03/25 08:46:21;;;;;;;0.00;0.00;;;;;;;12.90;75.18;93807.50;10378105;28;20863;-78
2024/03/25 08:51:22;;;;;;;0.00;0.00;;;;;;;15.36;55.87;93796.38;10379424;28;20276;-76
2024/03/25 08:56:22;;;;;;;0.00;0.00;;;;;;;13.87;51.43;93803.97;10379014;28;20021;-77
2024/03/25 09:01:24;;;;;;;0.00;0.00;;;;;;;10.15;70.68;93826.88;10360665;28;20036;-76
2024/03/25 09:06:24;;;;;;;0.00;0.00;;;;;;;9.98;84.03;93826.63;10378496;28;20287;-76
2024/03/25 09:11:26;;;;;;;0.00;0.00;;;;;;;10.62;82.68;93829.63;10378793;28;20369;-77
2024/03/25 09:16:26;;;;;;;0.00;0.00;;;;;;;10.56;77.24;93825.44;10379399;28;20056;-76
2024/03/25 09:21:27;;;;;;;0.00;0.00;;;;;;;9.17;85.27;93841.59;10361491;28;20021;-77
2024/03/25 09:26:27;;;;;;;0.00;0.00;;;;;;;10.18;83.02;93841.59;10378089;28;20650;-77
2024/03/25 09:31:28;;;;;;;0.00;0.00;;;;;;;10.73;84.22;93841.78;10378327;28;20640;-76
2024/03/25 09:36:28;;;;;;;0.00;0.00;;;;;;;10.92;77.50;93852.47;10377362;28;20040;-78
2024/03/25 09:41:34;;;;;;;0.00;0.00;;;;;;;11.20;74.50;93854.38;10376486;28;20311;-78
2024/03/25 09:46:36;;;;;;;0.00;0.00;;;;;;;11.84;70.61;93851.72;10358500;28;20308;-78
2024/03/25 09:51:37;;;;;;;0.00;0.00;;;;;;;12.93;64.70;93847.31;10375572;28;20109;-78
2024/03/25 09:56:39;;;;;;;0.00;0.00;;;;;;;14.04;56.12;93846.41;10378543;28;20033;-77
2024/03/25 10:01:39;;;;;;;0.00;0.00;;;;;;;13.31;53.71;93841.44;10376485;28;20098;-76
2024/03/25 10:06:40;;;;;;;0.00;0.00;;;;;;;11.91;58.97;93851.31;10375116;28;20090;-77
2024/03/25 10:11:40;;;;;;;0.00;0.00;;;;;;;13.74;57.60;93842.72;10373530;28;20026;-76
2024/03/25 10:16:41;;;;;;;0.00;0.00;;;;;;;15.28;52.87;93837.81;10377256;28;20599;-77
2024/03/25 10:21:41;;;;;;;0.00;0.00;;;;;;;16.94;45.97;93838.59;10375581;28;20754;-76
2024/03/25 10:26:42;;;;;;;0.00;0.00;;;;;;;18.40;41.51;93837.34;10375544;28;20045;-78
2024/03/25 10:31:43;;;;;;;0.00;0.00;;;;;;;18.98;37.48;93839.75;10375867;28;20088;-77
2024/03/25 10:36:43;;;;;;;0.00;0.00;;;;;;;18.54;39.05;93835.03;10374578;28;20041;-77
2024/03/25 10:41:45;;;;;;;0.00;0.00;;;;;;;15.99;40.40;93832.81;10375046;28;20044;-77
2024/03/25 10:46:46;;;;;;;0.00;0.00;;;;;;;14.70;42.65;93850.84;10378517;28;20064;-77
2024/03/25 10:51:48;;;;;;;0.00;0.00;;;;;;;17.05;38.90;93819.94;10363645;28;20520;-77
2024/03/25 10:56:51;;;;;;;0.00;0.00;;;;;;;19.30;33.91;93818.00;10371663;28;20033;-77
2024/03/25 11:01:52;;;;;;;0.00;0.00;;;;;;;19.53;33.62;93823.63;10364243;28;20057;-77
2024/03/25 11:06:52;;;;;;;0.00;0.00;;;;;;;21.24;34.59;93801.44;10381270;28;20668;-77
2024/03/25 11:11:53;;;;;;;0.00;0.00;;;;;;;20.72;32.36;93822.75;10383508;28;20130;-77
2024/03/25 11:16:54;;;;;;;0.00;0.00;;;;;;;19.26;34.11;93809.75;10383212;28;20280;-76
2024/03/25 11:22:06;;;;;;;0.00;0.00;;;;;;;20.24;32.21;93796.41;10381860;28;20460;-77
2024/03/25 11:27:08;;;;;;;0.00;0.00;;;;;;;19.99;32.53;93804.06;10382720;28;20064;-77
2024/03/25 11:32:08;;;;;;;0.00;0.00;;;;;;;19.01;34.67;93833.59;10383766;28;20464;-77
2024/03/25 11:37:09;;;;;;;0.00;0.00;;;;;;;16.81;39.40;93836.94;10381767;28;20029;-76
2024/03/25 11:42:10;;;;;;;0.00;0.00;;;;;;;15.38;42.77;93847.50;10381741;28;20086;-77
2024/03/25 11:47:12;;;;;;;0.00;0.00;;;;;;;13.72;48.55;93863.84;10362300;28;20053;-77
2024/03/25 11:52:13;;;;;;;0.00;0.00;;;;;;;11.43;57.00;93855.28;10383497;28;20445;-76
2024/03/25 11:57:13;;;;;;;0.00;0.00;;;;;;;11.01;67.30;93860.66;10378767;28;20033;-77
2024/03/25 12:02:16;;;;;;;0.00;0.00;;;;;;;10.55;68.75;93853.41;10380283;28;20033;-77
2024/03/25 12:07:16;;;;;;;0.00;0.00;;;;;;;9.83;73.54;93868.66;10377859;28;20105;-76
2024/03/25 12:12:16;;;;;;;0.00;0.00;;;;;;;10.19;70.61;93880.78;10380914;28;20029;-78
2024/03/25 12:17:17;;;;;;;0.00;0.00;;;;;;;10.41;63.35;93864.09;10382256;28;20057;-76
2024/03/25 12:22:18;;;;;;;0.00;0.00;;;;;;;10.88;61.26;93864.09;10363239;28;20033;-77
2024/03/25 12:27:18;;;;;;;0.00;0.00;;;;;;;10.99;65.37;93862.03;10380970;28;20033;-78
2024/03/25 12:32:19;;;;;;;0.00;0.00;;;;;;;10.87;65.23;93867.88;10380591;28;20275;-76
2024/03/25 12:37:19;;;;;;;0.00;0.00;;;;;;;11.07;66.53;93869.41;10381015;28;20475;-77
2024/03/25 12:42:20;;;;;;;0.00;0.00;;;;;;;11.07;63.30;93864.03;10378242;28;20688;-77
2024/03/25 12:47:20;;;;;;;0.00;0.00;;;;;;;10.60;60.43;93869.41;10380976;28;20059;-77
2024/03/25 12:52:21;;;;;;;0.00;0.00;;;;;;;9.46;63.00;93872.09;10379089;28;20033;-77
2024/03/25 12:57:21;;;;;;;0.00;0.00;;;;;;;10.06;62.92;93885.81;10379562;28;20314;-76
2024/03/25 13:02:21;;;;;;;0.00;0.00;;;;;;;10.12;59.15;93886.53;10379747;28;20029;-76
2024/03/25 13:07:22;;;;;;;0.00;0.00;;;;;;;10.18;58.19;93884.56;10379418;28;20274;-76
2024/03/25 13:12:22;;;;;;;0.00;0.00;;;;;;;10.20;68.46;93888.56;10376174;28;20299;-77
2024/03/25 13:17:23;;;;;;;0.00;0.00;;;;;;;10.56;54.53;93885.34;10379223;28;20043;-77
2024/03/25 13:22:23;;;;;;;0.00;0.00;;;;;;;10.55;58.72;93891.03;10378182;28;20087;-77
2024/03/25 13:27:25;;;;;;;0.00;0.00;;;;;;;9.85;59.88;93897.91;10378351;28;20437;-76
2024/03/25 13:32:25;;;;;;;0.00;0.00;;;;;;;10.14;61.68;93889.69;10361110;28;20033;-77
2024/03/25 13:37:26;;;;;;;0.00;0.00;;;;;;;10.27;60.49;93882.81;10378448;28;20396;-76
2024/03/25 13:42:26;;;;;;;0.00;0.00;;;;;;;9.52;56.46;93881.69;10378736;28;20052;-78
2024/03/25 13:47:27;;;;;;;0.00;0.00;;;;;;;9.36;61.76;93894.47;10358208;28;20307;-77
2024/03/25 13:52:27;;;;;;;0.00;0.00;;;;;;;9.11;57.23;93901.72;10376396;28;20453;-77
2024/03/25 13:57:28;;;;;;;0.00;0.00;;;;;;;9.18;60.35;93920.97;10374776;28;20096;-77
2024/03/25 14:02:28;;;;;;;0.00;0.00;;;;;;;9.57;57.21;93941.44;10378604;28;20025;-78
2024/03/25 14:07:28;;;;;;;0.00;0.00;;;;;;;9.75;55.30;93947.94;10377752;28;20029;-77
2024/03/25 14:12:29;;;;;;;0.00;0.00;;;;;;;9.74;61.83;93972.38;10377514;28;20268;-76
2024/03/25 14:17:29;;;;;;;0.00;0.00;;;;;;;9.43;70.95;93983.44;10377021;28;20282;-77
2024/03/25 14:22:30;;;;;;;0.00;0.00;;;;;;;9.31;71.55;93996.44;10381537;28;20367;-77
2024/03/25 14:27:30;;;;;;;0.00;0.00;;;;;;;9.06;76.13;93991.00;10385825;28;20052;-77
2024/03/25 14:32:30;;;;;;;0.00;0.00;;;;;;;8.81;77.21;94010.78;10384472;28;20643;-75
2024/03/25 14:37:32;;;;;;;0.00;0.00;;;;;;;8.76;71.35;93999.31;10385024;28;20126;-76
2024/03/25 14:42:32;;;;;;;0.00;0.00;;;;;;;9.15;70.08;93982.38;10354891;28;20319;-76
2024/03/25 14:47:33;;;;;;;0.00;0.00;;;;;;;9.50;64.19;93969.69;10381746;28;20126;-75
2024/03/25 14:52:33;;;;;;;0.00;0.00;;;;;;;9.52;60.92;93980.94;10382338;28;20268;-76
2024/03/25 14:57:35;;;;;;;0.00;0.00;;;;;;;9.52;66.58;93978.25;10381394;28;20280;-76
2024/03/25 15:02:35;;;;;;;0.00;0.00;;;;;;;8.98;69.33;93983.59;10379151;28;20325;-77
2024/03/25 15:07:36;;;;;;;0.00;0.00;;;;;;;8.57;72.57;93991.13;10366087;28;20025;-77
2024/03/25 15:12:36;;;;;;;0.00;0.00;;;;;;;8.24;78.15;93996.94;10363894;28;20021;-79
2024/03/25 15:17:36;;;;;;;0.00;0.00;;;;;;;7.97;83.91;94013.41;10372858;28;20037;-78
2024/03/25 15:22:38;;;;;;;0.00;0.00;;;;;;;7.67;89.27;94013.25;10374239;28;20296;-78
2024/03/25 15:27:38;;;;;;;0.00;0.00;;;;;;;7.30;96.24;94017.06;10382364;28;20703;-77
2024/03/25 15:32:39;;;;;;;0.00;0.00;;;;;;;7.39;95.55;94016.53;10378687;28;20029;-77
2024/03/25 15:37:39;;;;;;;0.00;0.00;;;;;;;7.17;100.00;94021.09;10380584;28;20018;-78
2024/03/25 15:42:40;;;;;;;0.00;0.00;;;;;;;7.45;100.00;94036.81;10364002;28;20040;-76
2024/03/25 15:47:40;;;;;;;0.00;0.00;;;;;;;7.70;100.00;94031.41;10370295;28;20300;-79
2024/03/25 15:52:42;;;;;;;0.00;0.00;;;;;;;7.77;92.12;94044.50;10378154;28;20292;-78
2024/03/25 15:57:42;;;;;;;0.00;0.00;;;;;;;7.83;87.45;94040.72;10375527;28;20032;-77
2024/03/25 16:02:43;;;;;;;0.00;0.00;;;;;;;8.00;78.56;94037.72;10356429;28;20086;-78
2024/03/25 16:07:43;;;;;;;0.00;0.00;;;;;;;7.94;78.43;94035.34;10369557;28;20036;-78
2024/03/25 16:12:45;;;;;;;0.00;0.00;;;;;;;7.96;76.68;94034.00;10373926;28;20406;-79
2024/03/25 16:17:45;;;;;;;0.00;0.00;;;;;;;7.60;80.46;94034.09;10382054;28;20044;-76
2024/03/25 16:22:49;;;;;;;0.00;0.00;;;;;;;7.30;82.35;94037.66;10379279;28;20037;-77
2024/03/25 16:27:51;;;;;;;0.00;0.00;;;;;;;6.84;76.20;94046.50;10375234;28;20049;-78
2024/03/25 16:32:52;;;;;;;0.00;0.00;;;;;;;6.70;72.26;94050.72;10356693;28;20033;-79
2024/03/25 16:37:53;;;;;;;0.00;0.00;;;;;;;6.49;72.03;94070.19;10379541;28;20856;-77
2024/03/25 16:42:53;;;;;;;0.00;0.00;;;;;;;6.35;73.41;94071.78;10377417;28;20033;-77
2024/03/25 16:47:54;;;;;;;0.00;0.00;;;;;;;6.47;77.65;94079.53;10370443;28;20049;-79
2024/03/25 16:52:54;;;;;;;0.00;0.00;;;;;;;6.28;74.32;94085.38;10378602;28;20762;-80
2024/03/25 16:57:54;;;;;;;0.00;0.00;;;;;;;6.36;74.92;94088.59;10357196;28;20284;-78
2024/03/25 17:02:55;;;;;;;0.00;0.00;;;;;;;6.40;76.38;94089.66;10359236;28;20107;-81
2024/03/25 17:07:55;;;;;;;0.00;0.00;;;;;;;6.51;73.37;94096.63;10365494;28;20052;-80
2024/03/25 17:12:56;;;;;;;0.00;0.00;;;;;;;6.43;77.27;94100.63;10371127;28;20646;-83
2024/03/25 17:17:56;;;;;;;0.00;0.00;;;;;;;6.43;75.50;94107.81;10386545;28;20095;-82
2024/03/25 17:22:56;;;;;;;0.00;0.00;;;;;;;6.63;77.92;94115.09;10368421;28;20030;-78
2024/03/25 17:27:58;;;;;;;0.00;0.00;;;;;;;6.73;73.32;94119.66;10380291;28;20283;-80
2024/03/25 17:32:59;;;;;;;0.00;0.00;;;;;;;6.84;75.88;94121.28;10381536;28;20048;-75
2024/03/25 17:37:59;;;;;;;0.00;0.00;;;;;;;6.60;73.55;94116.41;10372501;28;20032;-76
2024/03/25 17:42:59;;;;;;;0.00;0.00;;;;;;;6.66;73.48;94126.03;10375021;28;20299;-81
2024/03/25 17:48:01;;;;;;;0.00;0.00;;;;;;;6.42;81.66;94135.56;10366159;28;20324;-87
2024/03/25 17:53:01;;;;;;;0.00;0.00;;;;;;;6.50;78.05;94137.72;10366770;28;20281;-84
2024/03/25 17:58:04;;;;;;;0.00;0.00;;;;;;;6.36;79.18;94144.63;10389281;28;20037;-83
2024/03/25 18:03:05;;;;;;;0.00;0.00;;;;;;;6.33;79.51;94144.09;10371785;28;20052;-84
2024/03/25 18:08:05;;;;;;;0.00;0.00;;;;;;;6.29;79.84;94152.88;10391329;28;20038;-79
2024/03/25 18:13:07;;;;;;;0.00;0.00;;;;;;;6.47;83.67;94159.63;10380103;28;20264;-80
2024/03/25 18:18:09;;;;;;;0.00;0.00;;;;;;;6.57;82.02;94174.88;10369869;28;20030;-77
2024/03/25 18:23:10;;;;;;;0.00;0.00;;;;;;;6.56;82.02;94179.41;10374065;28;20467;-76
2024/03/25 18:28:12;;;;;;;0.00;0.00;;;;;;;6.38;79.43;94182.53;10357334;28;20034;-73
2024/03/25 18:33:13;;;;;;;0.00;0.00;;;;;;;6.29;81.75;94188.38;10374733;28;20114;-74
2024/03/25 18:38:13;;;;;;;0.00;0.00;;;;;;;6.21;79.48;94194.22;10374391;28;20034;-75
2024/03/25 18:43:13;;;;;;;0.00;0.00;;;;;;;6.13;80.94;94189.34;10381721;28;20041;-75
2024/03/25 18:48:14;;;;;;;0.00;0.00;;;;;;;6.12;81.88;94193.06;10380907;28;20102;-74
2024/03/25 18:53:14;;;;;;;0.00;0.00;;;;;;;6.24;84.22;94188.34;10377961;28;20037;-75
2024/03/25 18:58:15;;;;;;;0.00;0.00;;;;;;;6.09;83.45;94188.25;10381300;28;20863;-75
2024/03/25 19:03:15;;;;;;;0.00;0.00;;;;;;;6.04;85.67;94191.72;10379325;28;20116;-77
2024/03/25 19:08:15;;;;;;;0.00;0.00;;;;;;;6.00;86.55;94211.97;10377585;28;20404;-75
2024/03/25 19:13:16;;;;;;;0.00;0.00;;;;;;;5.91;87.79;94211.59;10380055;28;21045;-75
2024/03/25 19:18:16;;;;;;;0.00;0.00;;;;;;;5.79;88.02;94227.78;10378995;28;20341;-74
2024/03/25 19:23:16;;;;;;;0.00;0.00;;;;;;;5.88;85.55;94228.09;10380008;28;20411;-75
2024/03/25 19:28:17;;;;;;;0.00;0.00;;;;;;;5.84;83.93;94219.00;10357621;28;20033;-74
2024/03/25 19:33:17;;;;;;;0.00;0.00;;;;;;;6.13;88.73;94213.38;10381923;28;20525;-75
2024/03/25 19:38:17;;;;;;;0.00;0.00;;;;;;;6.28;84.76;94221.47;10381644;28;20419;-76
2024/03/25 19:43:18;;;;;;;0.00;0.00;;;;;;;6.35;81.22;94231.09;10381141;28;20291;-73
2024/03/25 19:48:18;;;;;;;0.00;0.00;;;;;;;6.33;77.41;94242.84;10358746;28;20322;-75
2024/03/25 19:53:19;;;;;;;0.00;0.00;;;;;;;6.39;81.91;94253.53;10359870;28;20363;-75
2024/03/25 19:58:19;;;;;;;0.00;0.00;;;;;;;6.38;79.26;94247.41;10383485;28;20029;-78
2024/03/25 20:03:20;;;;;;;0.00;0.00;;;;;;;6.48;80.55;94243.97;10382881;28;20044;-79
2024/03/25 20:08:20;;;;;;;0.00;0.00;;;;;;;6.44;78.60;94246.34;10375984;28;20042;-80
2024/03/25 20:13:23;;;;;;;0.00;0.00;;;;;;;6.45;82.07;94247.97;10386660;28;20124;-78
2024/03/25 20:18:24;;;;;;;0.00;0.00;;;;;;;6.46;81.46;94267.44;10387023;28;20104;-75
2024/03/25 20:23:25;;;;;;;0.00;0.00;;;;;;;6.42;84.32;94271.69;10379576;28;20061;-78
2024/03/25 20:28:25;;;;;;;0.00;0.00;;;;;;;6.37;94.72;94283.16;10386157;28;20450;-87
2024/03/25 20:33:25;;;;;;;0.00;0.00;;;;;;;6.17;99.80;94283.84;10390189;28;20029;-80
2024/03/25 20:38:26;;;;;;;0.00;0.00;;;;;;;6.09;100.00;94292.31;10391633;28;20029;-85
2024/03/25 20:43:26;;;;;;;0.00;0.00;;;;;;;5.76;100.00;94292.28;10399493;28;20146;-87
2024/03/25 20:48:27;;;;;;;0.00;0.00;;;;;;;5.74;100.00;94291.72;10377683;28;20644;-83
2024/03/25 20:53:27;;;;;;;0.00;0.00;;;;;;;5.46;100.00;94288.28;10388367;28;20492;-79
2024/03/25 20:58:27;;;;;;;0.00;0.00;;;;;;;5.25;100.00;94292.59;10382062;28;20279;-75
2024/03/25 21:03:28;;;;;;;0.00;0.00;;;;;;;5.27;100.00;94308.34;10384943;28;20292;-80
2024/03/25 21:08:28;;;;;;;0.00;0.00;;;;;;;5.25;100.00;94321.09;10368129;28;20083;-79
2024/03/25 21:13:28;;;;;;;0.00;0.00;;;;;;;5.17;100.00;94325.00;10386948;28;20540;-81
2024/03/25 21:18:29;;;;;;;0.00;0.00;;;;;;;5.01;100.00;94326.69;10389437;28;20272;-78
2024/03/25 21:23:47;;;;;;;0.00;0.00;;;;;;;4.85;100.00;94325.69;10392224;28;20032;-88
2024/03/25 21:28:48;;;;;;;0.00;0.00;;;;;;;4.64;100.00;94331.81;10383971;28;20276;-83
2024/03/25 21:33:48;;;;;;;0.00;0.00;;;;;;;4.64;100.00;94335.28;10400243;28;20452;-92
2024/03/25 21:38:49;;;;;;;0.00;0.00;;;;;;;4.51;96.41;94336.44;10367236;28;20351;-79
2024/03/25 21:43:49;;;;;;;0.00;0.00;;;;;;;4.40;95.53;94338.13;10386560;28;20840;-74
2024/03/25 21:48:50;;;;;;;0.00;0.00;;;;;;;4.46;96.20;94341.66;10393319;28;20790;-84
2024/03/25 21:53:50;;;;;;;0.00;0.00;;;;;;;4.45;94.74;94348.84;10378752;28;20268;-75
2024/03/25 21:58:52;;;;;;;0.00;0.00;;;;;;;4.32;97.95;94357.16;10385824;28;20025;-90
2024/03/25 22:03:52;;;;;;;0.00;0.00;;;;;;;4.28;97.87;94362.19;10387181;28;20087;-80
2024/03/25 22:08:52;;;;;;;0.00;0.00;;;;;;;4.10;98.43;94368.56;10387376;28;20036;-83
2024/03/25 22:13:53;;;;;;;0.00;0.00;;;;;;;4.02;100.00;94370.78;10370151;28;20264;-84
2024/03/25 22:18:54;;;;;;;0.00;0.00;;;;;;;3.89;100.00;94369.25;10387771;28;20626;-84
2024/03/25 22:23:55;;;;;;;0.00;0.00;;;;;;;3.75;100.00;94382.84;10388166;28;20074;-86
2024/03/25 22:28:55;;;;;;;0.00;0.00;;;;;;;3.62;100.00;94369.06;10390487;28;20029;-84
2024/03/25 22:33:55;;;;;;;0.00;0.00;;;;;;;3.33;100.00;94361.09;10390934;28;20029;-84
2024/03/25 22:38:56;;;;;;;0.00;0.00;;;;;;;3.43;100.00;94369.22;10369882;28;20273;-83
2024/03/25 22:43:56;;;;;;;0.00;0.00;;;;;;;3.29;100.00;94370.56;10373469;28;20292;-81
2024/03/25 22:48:56;;;;;;;0.00;0.00;;;;;;;3.38;100.00;94372.59;10383947;28;20534;-83
2024/03/25 22:53:57;;;;;;;0.00;0.00;;;;;;;3.24;100.00;94377.38;10375717;28;20750;-82
2024/03/25 22:58:57;;;;;;;0.00;0.00;;;;;;;3.26;100.00;94377.16;10374459;28;20801;-83
2024/03/25 23:03:57;;;;;;;0.00;0.00;;;;;;;3.05;100.00;94366.13;10391735;28;20295;-82
2024/03/25 23:08:58;;;;;;;0.00;0.00;;;;;;;3.06;100.00;94375.69;10373301;28;20476;-81
2024/03/25 23:13:58;;;;;;;0.00;0.00;;;;;;;3.24;100.00;94365.97;10390491;28;20263;-81
2024/03/25 23:18:58;;;;;;;0.00;0.00;;;;;;;3.27;100.00;94370.00;10390680;28;20108;-80
2024/03/25 23:23:59;;;;;;;0.00;0.00;;;;;;;2.97;100.00;94379.75;10391835;28;20291;-81
2024/03/25 23:29:00;;;;;;;0.00;0.00;;;;;;;2.98;100.00;94378.72;10390631;28;20338;-83